首页
METAR-TAF:

METAR-TAF

机场 :

馬佐夫舍地區托馬舒夫, 波兰

纬度: 51-35-04N, 经度: 020-05-52E, 海拔: 174米

METAR: 丢失

时间: 16:29 (14:29 UTC)

预报

该预报发布于3小时和29分钟前的11:00 UTC
预报有效从25日的 12点(UTC)到 25日的 21点(UTC)
风速8节,风向东转东南
能见度10公里或以上
1500米以下无云,无积雨云

TAF: EPTM 251100Z 2512/2521 12008KT CAVOK

超过4000个机场的气象观测和天气预报(METAR&TAF报告)。

可查询的气象台以黄色和红色小点在地图上表示。

将鼠标移到小点上方,可查看气象台名称。

然后点击查看天气观测和预报。

如需切换地图:点击带黑十字的绿色按钮放大地图;点击带横线的绿色按钮缩小地图;或者点击绿色箭头查看邻近地区的地图。


METAR-TAF: